Time;durP1;ratioP1;P1;durP2;ratioP2;P2;SDS_P1;SDS_P2;PMS_P1;PMS_P2;Temp;Humidity;BMP_temperature;BMP_pressure;BME280_temperature;BME280_humidity;BME280_pressure;Samples;Min_cycle;Max_cycle;Signal;HPM_P1;HPM_P2
2022/08/13 00:01:56;;;;;;;0.80;0.20;;;21.00;95.10;;;;;;5025632;28;20073;-81
2022/08/13 00:04:26;;;;;;;1.15;0.30;;;21.00;95.20;;;;;;5007676;28;20594;-80
2022/08/13 00:07:25;;;;;;;2.08;0.20;;;21.00;95.10;;;;;;5019563;28;20117;-82
2022/08/13 00:09:44;;;;;;;0.52;0.17;;;21.00;95.10;;;;;;5019610;28;20022;-83
2022/08/13 00:15:01;;;;;;;1.50;0.20;;;20.80;95.20;;;;;;5017158;28;20101;-81
2022/08/13 00:17:27;;;;;;;0.50;0.10;;;20.80;95.00;;;;;;5018848;28;20429;-81
2022/08/13 00:19:53;;;;;;;0.60;0.15;;;20.80;95.30;;;;;;5025130;28;20374;-83
2022/08/13 00:22:25;;;;;;;1.55;0.30;;;20.70;95.50;;;;;;5009694;28;20029;-82
2022/08/13 00:24:51;;;;;;;0.98;0.20;;;20.70;95.10;;;;;;5026055;28;20029;-83
2022/08/13 00:27:17;;;;;;;0.55;0.10;;;20.60;95.50;;;;;;5013977;28;20544;-81
2022/08/13 00:29:43;;;;;;;0.40;0.20;;;20.60;95.40;;;;;;5025992;28;20033;-80
2022/08/13 00:32:09;;;;;;;0.50;0.20;;;20.60;95.50;;;;;;5017203;28;20030;-80
2022/08/13 00:34:34;;;;;;;0.40;0.10;;;20.40;96.10;;;;;;5020962;28;20165;-81
2022/08/13 00:37:00;;;;;;;0.50;0.20;;;20.30;96.50;;;;;;5020014;28;20128;-80
2022/08/13 00:39:26;;;;;;;0.40;0.20;;;20.30;96.40;;;;;;5023382;28;20033;-80
2022/08/13 00:41:51;;;;;;;0.63;0.20;;;20.20;96.80;;;;;;5016414;28;20582;-83
2022/08/13 00:44:18;;;;;;;0.40;0.20;;;20.10;97.30;;;;;;5019693;28;20067;-80
2022/08/13 00:46:44;;;;;;;2.05;0.20;;;19.80;97.50;;;;;;5021115;28;20080;-81
2022/08/13 00:49:12;;;;;;;0.60;0.20;;;19.60;98.00;;;;;;5034798;28;20034;-83
2022/08/13 00:51:40;;;;;;;1.52;0.30;;;19.60;98.50;;;;;;5017360;28;20022;-81
2022/08/13 00:54:09;;;;;;;2.60;0.30;;;19.40;99.10;;;;;;5034848;28;20117;-80
2022/08/13 00:56:35;;;;;;;0.63;0.30;;;19.30;99.30;;;;;;5034832;28;20030;-81
2022/08/13 00:59:11;;;;;;;0.70;0.25;;;19.10;99.90;;;;;;5021739;28;20381;-82
2022/08/13 01:01:39;;;;;;;2.58;0.30;;;19.00;99.90;;;;;;5023555;28;20048;-83
2022/08/13 01:04:07;;;;;;;1.10;0.30;;;19.00;99.90;;;;;;5019770;28;20026;-79
2022/08/13 01:06:33;;;;;;;3.05;0.30;;;18.90;99.90;;;;;;5033838;28;20155;-80
2022/08/13 01:08:59;;;;;;;1.38;0.30;;;18.90;99.90;;;;;;5018120;28;20049;-82
2022/08/13 01:11:27;;;;;;;0.47;0.20;;;18.70;99.90;;;;;;5018834;28;20555;-82
2022/08/13 01:13:53;;;;;;;0.60;0.20;;;18.50;99.90;;;;;;5034335;28;20473;-80
2022/08/13 01:16:19;;;;;;;0.80;0.30;;;18.30;99.90;;;;;;5021703;28;20108;-80
2022/08/13 01:18:52;;;;;;;1.08;0.30;;;18.20;99.90;;;;;;5021334;28;20394;-83
2022/08/13 01:21:20;;;;;;;2.15;0.30;;;18.20;99.90;;;;;;5030947;28;20057;-79
2022/08/13 01:23:52;;;;;;;0.90;0.28;;;18.20;99.90;;;;;;5020699;28;20037;-83
2022/08/13 01:26:19;;;;;;;1.13;0.30;;;18.10;99.90;;;;;;5019412;28;20115;-80
2022/08/13 01:28:47;;;;;;;0.38;0.15;;;18.00;99.90;;;;;;5026067;28;20033;-80
2022/08/13 01:31:15;;;;;;;1.13;0.30;;;17.80;99.90;;;;;;5035644;28;20108;-80
2022/08/13 01:33:43;;;;;;;0.70;0.20;;;17.70;99.90;;;;;;5018913;28;20030;-82
2022/08/13 01:36:10;;;;;;;0.55;0.20;;;17.80;99.90;;;;;;5034380;28;20033;-82
2022/08/13 01:38:38;;;;;;;1.42;0.30;;;17.80;99.90;;;;;;5017091;28;20414;-81
2022/08/13 01:41:08;;;;;;;3.47;0.30;;;17.80;99.90;;;;;;5016238;28;20055;-83
2022/08/13 01:43:37;;;;;;;0.80;0.30;;;17.70;99.90;;;;;;5002315;28;20049;-79
2022/08/13 01:46:07;;;;;;;2.05;0.30;;;17.70;99.90;;;;;;5024517;28;20091;-83
2022/08/13 01:51:35;;;;;;;0.50;0.20;;;17.60;99.90;;;;;;5015729;28;20026;-79
2022/08/13 01:54:09;;;;;;;1.08;0.20;;;17.70;99.90;;;;;;5031887;28;20034;-80
2022/08/13 01:56:38;;;;;;;0.90;0.28;;;17.60;99.90;;;;;;5010231;28;20030;-79
2022/08/13 01:59:04;;;;;;;0.60;0.20;;;17.50;99.90;;;;;;5021573;28;20029;-80
2022/08/13 02:01:31;;;;;;;1.55;0.30;;;17.50;99.90;;;;;;5021331;28;20160;-82
2022/08/13 02:03:58;;;;;;;1.10;0.30;;;17.40;99.90;;;;;;5021713;28;20025;-79
2022/08/13 02:06:27;;;;;;;0.70;0.25;;;17.40;99.90;;;;;;5036504;28;20060;-79
2022/08/13 02:08:59;;;;;;;0.70;0.20;;;17.30;99.90;;;;;;5040248;28;20040;-81
2022/08/13 02:11:34;;;;;;;0.65;0.20;;;17.30;99.90;;;;;;5022543;28;20033;-80
2022/08/13 02:14:04;;;;;;;1.48;0.28;;;17.30;99.90;;;;;;5034969;28;20017;-80
2022/08/13 02:16:35;;;;;;;1.00;0.20;;;17.10;99.90;;;;;;5010642;28;20754;-79
2022/08/13 02:19:07;;;;;;;0.95;0.30;;;17.00;99.90;;;;;;5024099;28;20083;-81
2022/08/13 02:21:39;;;;;;;0.95;0.30;;;16.90;99.90;;;;;;5033631;28;20510;-80
2022/08/13 02:24:13;;;;;;;2.45;0.30;;;16.90;99.90;;;;;;5025167;28;20026;-80
2022/08/13 02:26:42;;;;;;;0.63;0.30;;;16.90;99.90;;;;;;5020530;28;20017;-83
2022/08/13 02:29:09;;;;;;;0.55;0.25;;;16.80;99.90;;;;;;5020421;28;20242;-84
2022/08/13 02:31:36;;;;;;;0.50;0.20;;;16.80;99.90;;;;;;5028731;28;20033;-81
2022/08/13 02:34:02;;;;;;;0.63;0.30;;;16.80;99.90;;;;;;5019946;28;20068;-82
2022/08/13 02:36:30;;;;;;;0.80;0.30;;;16.70;99.90;;;;;;5020987;28;20018;-81
2022/08/13 02:39:05;;;;;;;1.65;0.30;;;16.70;99.90;;;;;;5022209;28;20053;-80
2022/08/13 02:41:42;;;;;;;1.60;0.30;;;16.60;99.90;;;;;;5056218;28;20024;-83
2022/08/13 02:44:14;;;;;;;0.80;0.30;;;16.60;99.90;;;;;;5061636;28;20090;-82
2022/08/13 02:46:48;;;;;;;0.90;0.30;;;16.60;99.90;;;;;;5059808;28;20028;-83
2022/08/13 02:49:13;;;;;;;1.58;0.30;;;16.50;99.90;;;;;;5042847;28;20025;-82
2022/08/13 02:51:39;;;;;;;1.10;0.30;;;16.50;99.90;;;;;;5058388;28;20033;-79
2022/08/13 02:54:06;;;;;;;2.17;0.40;;;16.60;99.90;;;;;;5060361;28;20021;-84
2022/08/13 02:56:32;;;;;;;1.33;0.30;;;16.50;99.90;;;;;;5058833;28;20068;-80
2022/08/13 02:58:58;;;;;;;0.90;0.30;;;16.50;99.90;;;;;;5061334;28;20028;-81
2022/08/13 03:01:27;;;;;;;1.13;0.40;;;16.40;99.90;;;;;;5052179;28;20503;-79
2022/08/13 03:03:53;;;;;;;1.45;0.30;;;16.40;99.90;;;;;;5047061;28;20024;-82
2022/08/13 03:06:20;;;;;;;0.95;0.40;;;16.30;99.90;;;;;;5058872;28;20396;-81
2022/08/13 03:08:51;;;;;;;1.05;0.32;;;16.30;99.90;;;;;;5060167;28;20553;-81
2022/08/13 03:11:18;;;;;;;1.23;0.30;;;16.30;99.90;;;;;;5048229;28;20305;-80
2022/08/13 03:13:51;;;;;;;1.20;0.40;;;16.20;99.90;;;;;;5043943;28;20495;-79
2022/08/13 03:16:21;;;;;;;1.10;0.50;;;16.10;99.90;;;;;;5059729;28;20040;-79
2022/08/13 03:18:47;;;;;;;0.70;0.32;;;16.20;99.90;;;;;;5065819;28;20031;-80
2022/08/13 03:21:16;;;;;;;0.90;0.30;;;16.20;99.90;;;;;;5058979;28;20071;-83
2022/08/13 03:23:43;;;;;;;1.07;0.40;;;16.10;99.90;;;;;;5060045;28;20082;-79
2022/08/13 03:26:11;;;;;;;1.80;0.40;;;16.00;99.90;;;;;;5061064;28;20036;-81
2022/08/13 03:28:37;;;;;;;1.65;0.40;;;16.00;99.90;;;;;;5058996;28;20154;-79
2022/08/13 03:31:05;;;;;;;1.17;0.40;;;16.00;99.90;;;;;;5058387;28;20107;-82
2022/08/13 03:33:31;;;;;;;0.73;0.38;;;16.00;99.90;;;;;;5044810;28;20120;-80
2022/08/13 03:35:57;;;;;;;0.80;0.35;;;16.00;99.90;;;;;;5050355;28;20028;-83
2022/08/13 03:38:23;;;;;;;1.60;0.40;;;16.00;99.90;;;;;;5063130;28;20031;-82
2022/08/13 03:41:02;;;;;;;1.00;0.30;;;15.90;99.90;;;;;;5061439;28;20078;-78
2022/08/13 03:43:30;;;;;;;1.83;0.40;;;15.90;99.90;;;;;;5059782;28;20028;-79
2022/08/13 03:45:57;;;;;;;1.02;0.40;;;15.90;99.90;;;;;;5060910;28;20039;-84
2022/08/13 03:48:24;;;;;;;1.02;0.40;;;15.90;99.90;;;;;;5050931;28;20102;-83
2022/08/13 03:50:51;;;;;;;1.40;0.35;;;15.90;99.90;;;;;;5060717;28;20028;-80
2022/08/13 03:53:20;;;;;;;1.40;0.30;;;15.80;99.90;;;;;;5047510;28;20480;-78
2022/08/13 03:55:46;;;;;;;2.25;0.40;;;15.80;99.90;;;;;;5058489;28;20033;-83
2022/08/13 03:58:15;;;;;;;1.48;0.40;;;15.80;99.90;;;;;;5060849;28;20031;-80
2022/08/13 04:00:49;;;;;;;1.00;0.30;;;15.80;99.90;;;;;;5063075;28;20029;-82
2022/08/13 04:03:20;;;;;;;1.83;0.30;;;15.80;99.90;;;;;;5049186;28;20033;-83
2022/08/13 04:06:16;;;;;;;0.75;0.30;;;15.70;99.90;;;;;;5059347;28;20060;-80
2022/08/13 04:08:44;;;;;;;1.27;0.30;;;15.70;99.90;;;;;;5065402;28;20111;-82
2022/08/13 04:11:12;;;;;;;1.33;0.40;;;15.50;99.90;;;;;;5047444;28;20051;-83
2022/08/13 04:13:39;;;;;;;1.08;0.30;;;15.50;99.90;;;;;;5042932;28;20033;-79
2022/08/13 04:16:11;;;;;;;1.00;0.30;;;15.60;99.90;;;;;;5058094;28;20067;-80
2022/08/13 04:18:42;;;;;;;0.90;0.40;;;15.50;99.90;;;;;;5056710;28;20177;-79
2022/08/13 04:21:09;;;;;;;1.08;0.30;;;15.60;99.90;;;;;;5057619;28;20052;-79
2022/08/13 04:23:39;;;;;;;1.00;0.40;;;15.60;99.90;;;;;;5039393;28;20027;-80
2022/08/13 04:26:05;;;;;;;1.67;0.40;;;15.60;99.90;;;;;;5059677;28;20111;-81
2022/08/13 04:28:31;;;;;;;0.90;0.35;;;15.60;99.90;;;;;;5033478;28;20477;-78
2022/08/13 04:30:58;;;;;;;2.25;0.30;;;15.60;99.90;;;;;;5056727;28;20132;-84
2022/08/13 04:33:24;;;;;;;1.52;0.30;;;15.60;99.90;;;;;;5058343;28;20431;-84
2022/08/13 04:35:50;;;;;;;0.70;0.30;;;15.60;99.90;;;;;;5032790;28;20077;-82
2022/08/13 04:38:16;;;;;;;1.02;0.40;;;15.60;99.90;;;;;;5030191;28;20067;-79
2022/08/13 04:40:43;;;;;;;0.98;0.50;;;15.60;99.90;;;;;;5047594;28;20113;-81
2022/08/13 04:43:10;;;;;;;2.92;0.35;;;15.60;99.90;;;;;;5059175;28;20532;-80
2022/08/13 04:45:38;;;;;;;1.90;0.30;;;15.60;99.90;;;;;;5061588;28;20078;-83
2022/08/13 04:48:12;;;;;;;1.30;0.40;;;15.60;99.90;;;;;;5040835;28;20112;-82
2022/08/13 04:50:40;;;;;;;2.13;0.40;;;15.60;99.90;;;;;;5060264;28;20027;-84
2022/08/13 04:53:10;;;;;;;3.03;0.40;;;15.60;99.90;;;;;;5058859;28;20043;-78
2022/08/13 04:55:37;;;;;;;1.25;0.35;;;15.60;99.90;;;;;;5044957;28;20025;-82
2022/08/13 04:58:04;;;;;;;0.90;0.35;;;15.60;99.90;;;;;;5057741;28;20074;-80
2022/08/13 05:00:34;;;;;;;1.10;0.40;;;15.70;99.90;;;;;;5058811;28;20083;-81
2022/08/13 05:03:11;;;;;;;3.58;0.40;;;15.60;99.90;;;;;;5055580;28;20158;-79
2022/08/13 05:05:37;;;;;;;1.35;0.40;;;15.70;99.90;;;;;;5057046;28;20373;-78
2022/08/13 05:08:04;;;;;;;1.27;0.38;;;15.70;99.90;;;;;;5053802;28;20029;-77
2022/08/13 05:10:31;;;;;;;1.98;0.40;;;15.70;99.90;;;;;;5042674;28;20468;-84
2022/08/13 05:13:01;;;;;;;0.98;0.30;;;15.80;99.90;;;;;;5044380;28;20100;-82
2022/08/13 05:15:27;;;;;;;1.33;0.30;;;15.90;99.90;;;;;;5054572;28;20038;-80
2022/08/13 05:17:53;;;;;;;0.75;0.20;;;15.90;99.90;;;;;;5055688;28;20029;-83
2022/08/13 05:20:19;;;;;;;1.70;0.22;;;16.00;99.90;;;;;;5056135;28;20096;-82
2022/08/13 05:22:45;;;;;;;0.68;0.30;;;16.10;99.90;;;;;;5055962;28;20039;-83
2022/08/13 05:25:14;;;;;;;0.77;0.30;;;16.30;99.90;;;;;;5057120;28;20032;-81
2022/08/13 05:27:41;;;;;;;0.50;0.30;;;16.40;99.90;;;;;;5054680;28;20028;-79
2022/08/13 05:30:07;;;;;;;1.73;0.22;;;16.60;99.90;;;;;;5022269;28;20488;-80
2022/08/13 05:32:38;;;;;;;1.15;0.30;;;16.70;99.90;;;;;;5037235;28;20037;-85
2022/08/13 05:35:06;;;;;;;3.05;0.30;;;16.80;99.90;;;;;;5024686;28;20028;-83
2022/08/13 05:37:31;;;;;;;1.73;0.30;;;16.90;99.90;;;;;;5041263;28;20021;-82
2022/08/13 05:39:57;;;;;;;0.90;0.30;;;17.00;99.90;;;;;;5038006;28;20065;-84
2022/08/13 05:42:24;;;;;;;2.80;0.20;;;17.20;99.90;;;;;;5039669;28;20394;-80
2022/08/13 05:44:50;;;;;;;0.95;0.30;;;17.10;99.90;;;;;;5027174;28;20131;-83
2022/08/13 05:47:15;;;;;;;0.90;0.30;;;17.10;99.90;;;;;;5039684;28;20028;-80
2022/08/13 05:49:41;;;;;;;1.13;0.30;;;17.30;99.90;;;;;;5027035;28;20033;-84
2022/08/13 05:52:07;;;;;;;2.13;0.30;;;17.50;99.90;;;;;;5025214;28;20540;-81
2022/08/13 05:54:34;;;;;;;0.93;0.30;;;17.50;99.90;;;;;;5052682;28;20032;-82
2022/08/13 05:57:00;;;;;;;1.75;0.40;;;17.60;99.90;;;;;;5051062;28;20060;-81
2022/08/13 06:04:55;;;;;;;1.00;0.30;;;17.90;99.90;;;;;;5051577;28;20032;-80
2022/08/13 06:07:22;;;;;;;1.25;0.30;;;18.10;99.90;;;;;;5026497;28;20029;-80
2022/08/13 06:09:47;;;;;;;0.88;0.30;;;18.20;99.90;;;;;;5032230;28;20111;-86
2022/08/13 06:12:15;;;;;;;0.98;0.40;;;18.30;99.90;;;;;;5051184;28;20115;-78
2022/08/13 06:14:40;;;;;;;2.08;0.38;;;18.50;99.90;;;;;;5035706;28;20020;-83
2022/08/13 06:17:06;;;;;;;1.30;0.47;;;18.70;99.90;;;;;;5025096;28;20600;-80
2022/08/13 06:19:32;;;;;;;1.65;0.30;;;18.90;99.90;;;;;;5036083;28;20048;-84
2022/08/13 06:22:04;;;;;;;2.80;0.30;;;19.10;99.90;;;;;;5032860;28;20399;-83
2022/08/13 06:24:32;;;;;;;1.27;0.30;;;19.30;99.90;;;;;;5037216;28;20492;-79
2022/08/13 06:27:00;;;;;;;2.70;0.32;;;19.50;99.90;;;;;;5040720;28;20028;-82
2022/08/13 06:29:28;;;;;;;1.20;0.30;;;19.70;99.90;;;;;;5052726;28;20024;-85
2022/08/13 06:31:55;;;;;;;1.35;0.30;;;20.00;99.90;;;;;;5039567;28;20032;-86
2022/08/13 06:34:22;;;;;;;1.23;0.30;;;20.20;99.90;;;;;;5026792;28;20036;-81
2022/08/13 06:36:48;;;;;;;0.45;0.20;;;20.40;99.90;;;;;;5052190;28;20048;-80
2022/08/13 06:39:15;;;;;;;1.83;0.30;;;20.70;99.90;;;;;;5042190;28;20508;-82
2022/08/13 06:41:42;;;;;;;3.65;0.30;;;21.00;99.90;;;;;;5043939;28;20378;-83
2022/08/13 06:44:17;;;;;;;1.35;0.22;;;21.30;99.90;;;;;;5028640;28;20473;-81
2022/08/13 06:46:43;;;;;;;0.93;0.30;;;21.50;99.90;;;;;;5046291;28;20024;-80
2022/08/13 06:49:11;;;;;;;0.75;0.20;;;21.60;99.90;;;;;;5042008;28;20029;-85
2022/08/13 06:51:37;;;;;;;2.20;0.30;;;21.90;99.90;;;;;;5027391;28;20028;-81
2022/08/13 06:54:08;;;;;;;0.45;0.20;;;22.10;99.90;;;;;;5048440;28;20016;-81
2022/08/13 06:56:35;;;;;;;1.35;0.20;;;22.30;99.90;;;;;;5056440;28;20128;-81
2022/08/13 06:59:03;;;;;;;2.88;0.20;;;22.60;99.90;;;;;;5035739;28;20102;-84
2022/08/13 07:01:30;;;;;;;0.60;0.20;;;22.90;99.90;;;;;;5033016;28;20373;-82
2022/08/13 07:03:56;;;;;;;1.05;0.20;;;23.00;99.90;;;;;;5032124;28;20021;-80
2022/08/13 07:06:27;;;;;;;0.52;0.20;;;23.20;99.90;;;;;;5030231;28;20028;-81
2022/08/13 07:08:58;;;;;;;2.45;0.45;;;23.30;99.90;;;;;;5055159;28;20158;-81
2022/08/13 07:11:26;;;;;;;2.25;0.20;;;23.50;99.90;;;;;;5024707;28;20021;-82
2022/08/13 07:14:02;;;;;;;1.27;0.20;;;23.60;99.90;;;;;;5039378;28;20033;-83
2022/08/13 07:16:34;;;;;;;1.67;0.20;;;23.70;99.90;;;;;;5036704;28;20033;-82
2022/08/13 07:19:01;;;;;;;1.00;0.20;;;24.00;99.90;;;;;;5053990;28;20147;-84
2022/08/13 07:21:28;;;;;;;0.60;0.20;;;24.20;99.90;;;;;;5046436;28;20032;-84
2022/08/13 07:23:56;;;;;;;0.50;0.10;;;24.50;99.90;;;;;;5052551;28;20028;-84
2022/08/13 07:26:24;;;;;;;0.52;0.10;;;24.70;99.90;;;;;;5026414;28;20039;-82
2022/08/13 07:28:51;;;;;;;0.47;0.10;;;25.00;99.90;;;;;;5057573;28;20105;-82
2022/08/13 07:31:26;;;;;;;1.05;0.10;;;25.10;99.90;;;;;;5048515;28;20029;-82
2022/08/13 07:33:53;;;;;;;1.05;0.15;;;25.40;99.90;;;;;;5056664;28;20495;-83
2022/08/13 07:36:21;;;;;;;1.15;0.20;;;25.50;99.90;;;;;;5055975;28;20272;-83
2022/08/13 07:38:47;;;;;;;2.30;0.20;;;25.80;99.90;;;;;;5023992;28;20124;-85
2022/08/13 07:41:14;;;;;;;1.05;0.20;;;25.80;99.90;;;;;;5040779;28;20060;-81
2022/08/13 07:43:44;;;;;;;1.80;0.20;;;26.10;99.90;;;;;;5042763;28;20025;-85
2022/08/13 07:46:17;;;;;;;0.40;0.20;;;26.20;99.90;;;;;;5039524;28;20086;-84
2022/08/13 07:48:50;;;;;;;2.55;0.20;;;26.20;99.70;;;;;;5040210;28;20024;-84
2022/08/13 07:51:20;;;;;;;0.60;0.10;;;26.50;99.60;;;;;;5042526;28;20024;-84
2022/08/13 07:53:54;;;;;;;1.15;0.20;;;26.60;99.30;;;;;;5027970;28;20460;-82
2022/08/13 07:56:30;;;;;;;2.97;0.20;;;26.80;99.40;;;;;;5021610;28;20033;-83
2022/08/13 07:59:08;;;;;;;0.75;0.10;;;27.00;99.30;;;;;;5036766;28;20500;-82
2022/08/13 08:01:46;;;;;;;0.60;0.10;;;27.10;98.60;;;;;;5021805;28;20550;-84
2022/08/13 08:04:13;;;;;;;0.13;0.10;;;27.30;98.90;;;;;;5022618;28;22000;-82
2022/08/13 08:06:40;;;;;;;1.02;0.10;;;27.30;98.50;;;;;;5051972;28;20024;-85
2022/08/13 08:09:10;;;;;;;0.50;0.10;;;27.20;98.40;;;;;;5043884;28;20058;-82
2022/08/13 08:14:25;;;;;;;0.40;0.10;;;27.60;98.50;;;;;;5036939;28;20029;-83
2022/08/13 08:16:53;;;;;;;1.92;0.10;;;27.80;98.50;;;;;;5038446;28;20070;-83
2022/08/13 08:19:19;;;;;;;0.65;0.10;;;28.00;98.40;;;;;;5025245;28;20051;-84
2022/08/13 08:21:47;;;;;;;1.50;0.17;;;28.00;97.70;;;;;;5040347;28;20468;-83
2022/08/13 08:24:14;;;;;;;0.55;0.10;;;27.90;97.10;;;;;;5038467;28;21940;-84
2022/08/13 08:26:40;;;;;;;0.38;0.10;;;28.00;97.40;;;;;;5039612;28;20033;-85
2022/08/13 08:29:09;;;;;;;1.27;0.13;;;28.30;97.40;;;;;;5053186;28;20029;-85
2022/08/13 08:31:39;;;;;;;0.32;0.10;;;28.50;97.40;;;;;;5053479;28;20121;-83
2022/08/13 08:34:07;;;;;;;0.40;0.10;;;28.60;96.40;;;;;;5051306;28;20033;-85
2022/08/13 08:36:42;;;;;;;0.88;0.10;;;28.50;96.20;;;;;;5028022;28;20041;-84
2022/08/13 08:44:41;;;;;;;0.57;0.20;;;28.80;96.30;;;;;;5054369;28;20044;-83
2022/08/13 08:47:07;;;;;;;0.60;0.10;;;28.90;96.40;;;;;;5054874;28;20480;-84
2022/08/13 08:49:35;;;;;;;0.47;0.10;;;29.10;96.60;;;;;;5037309;28;20107;-84
2022/08/13 08:52:02;;;;;;;0.93;0.20;;;29.20;96.50;;;;;;5032761;28;20029;-84
2022/08/13 08:54:29;;;;;;;1.58;0.10;;;29.30;96.00;;;;;;5036491;28;20424;-85
2022/08/13 08:56:56;;;;;;;1.27;0.10;;;29.30;96.20;;;;;;5031971;28;20362;-85
2022/08/13 08:59:35;;;;;;;0.45;0.10;;;29.60;95.80;;;;;;5024187;28;20498;-86
2022/08/13 09:02:15;;;;;;;;;;;29.70;96.10;;;;;;5052834;28;20120;-84
2022/08/13 09:04:40;;;;;;;;;;;30.00;96.50;;;;;;5043523;28;19908;-85
2022/08/13 09:07:08;;;;;;;1.02;0.10;;;30.10;95.80;;;;;;5034792;28;19943;-85
2022/08/13 09:09:33;;;;;;;0.10;0.10;;;29.80;95.50;;;;;;5042276;28;20033;-84
2022/08/13 09:12:00;;;;;;;1.88;0.10;;;29.60;95.90;;;;;;5046826;28;20392;-84
2022/08/13 09:14:30;;;;;;;1.15;0.15;;;30.30;96.30;;;;;;5043553;28;20040;-83
2022/08/13 09:16:57;;;;;;;0.43;0.10;;;30.20;95.60;;;;;;5048100;28;20049;-85
2022/08/13 09:19:24;;;;;;;0.17;0.10;;;30.80;95.90;;;;;;5037332;28;20059;-86
2022/08/13 09:21:51;;;;;;;0.50;0.13;;;30.90;95.20;;;;;;5022972;28;20128;-83
2022/08/13 09:24:21;;;;;;;1.67;0.10;;;30.70;95.70;;;;;;5044414;28;20021;-84
2022/08/13 09:26:51;;;;;;;0.38;0.10;;;30.90;95.30;;;;;;5019954;28;20029;-84
2022/08/13 09:29:19;;;;;;;0.30;0.10;;;30.90;95.40;;;;;;5040906;28;20556;-84
2022/08/13 09:31:48;;;;;;;0.20;0.10;;;30.90;95.60;;;;;;5051715;28;20029;-83
2022/08/13 09:34:14;;;;;;;0.80;0.10;;;31.40;95.10;;;;;;5018437;28;20473;-83
2022/08/13 09:36:41;;;;;;;1.08;0.10;;;31.50;94.70;;;;;;5052369;28;20025;-84
2022/08/13 09:39:08;;;;;;;0.40;0.17;;;31.10;94.50;;;;;;5027070;28;20100;-85
2022/08/13 09:41:42;;;;;;;0.85;0.20;;;31.00;94.60;;;;;;5042501;28;20083;-84
2022/08/13 09:44:07;;;;;;;0.25;0.10;;;31.30;94.50;;;;;;5037138;28;20366;-84
2022/08/13 09:46:35;;;;;;;0.65;0.10;;;31.00;94.70;;;;;;5035667;28;20012;-85
2022/08/13 09:49:03;;;;;;;0.20;0.10;;;31.10;95.20;;;;;;5039662;28;20041;-85
2022/08/13 09:51:34;;;;;;;0.43;0.10;;;31.50;95.00;;;;;;5042783;28;20108;-84
2022/08/13 09:54:01;;;;;;;0.63;0.10;;;31.90;95.40;;;;;;5043006;28;20025;-84
2022/08/13 09:56:27;;;;;;;0.22;0.10;;;32.30;93.90;;;;;;5022822;28;20021;-84
2022/08/13 09:58:53;;;;;;;0.40;0.10;;;32.30;93.30;;;;;;5037296;28;20545;-84
2022/08/13 10:01:18;;;;;;;0.65;0.13;;;32.40;92.80;;;;;;5028220;28;20075;-85
2022/08/13 10:03:48;;;;;;;0.63;0.10;;;32.10;93.10;;;;;;5052466;28;20064;-85
2022/08/13 10:06:18;;;;;;;0.30;0.10;;;32.30;93.30;;;;;;5039671;28;20469;-84
2022/08/13 10:08:46;;;;;;;0.52;0.10;;;32.40;93.20;;;;;;5040223;28;20032;-84
2022/08/13 10:11:15;;;;;;;0.23;0.10;;;32.10;92.80;;;;;;5043475;28;20033;-85
2022/08/13 10:13:41;;;;;;;;;;;32.30;93.20;;;;;;5043647;28;20040;-85
2022/08/13 10:16:07;;;;;;;0.22;0.10;;;32.80;93.00;;;;;;5053020;28;20255;-85
2022/08/13 10:18:32;;;;;;;0.63;0.10;;;32.80;92.30;;;;;;5046891;28;20136;-85
2022/08/13 10:20:58;;;;;;;0.28;0.00;;;32.30;92.40;;;;;;5028801;28;20119;-84
2022/08/13 10:23:24;;;;;;;0.28;0.10;;;32.60;93.00;;;;;;5056083;28;20059;-86
2022/08/13 10:25:52;;;;;;;0.35;0.10;;;32.60;92.80;;;;;;5026393;28;20029;-85
2022/08/13 10:28:23;;;;;;;0.30;0.10;;;32.70;92.40;;;;;;5042120;28;20037;-85
2022/08/13 10:30:49;;;;;;;0.20;0.10;;;33.20;92.30;;;;;;5041237;28;20052;-85
2022/08/13 10:33:16;;;;;;;1.00;0.10;;;33.20;92.60;;;;;;5055662;28;20456;-85
2022/08/13 10:35:43;;;;;;;0.30;0.10;;;33.00;91.80;;;;;;5032409;28;20032;-84
2022/08/13 10:38:16;;;;;;;1.10;0.10;;;32.90;91.40;;;;;;5038835;28;20029;-85
2022/08/13 10:40:42;;;;;;;0.20;0.10;;;33.20;91.80;;;;;;5053449;28;20048;-85
2022/08/13 10:43:08;;;;;;;0.55;0.10;;;33.10;91.30;;;;;;5038420;28;20040;-85
2022/08/13 10:45:34;;;;;;;0.35;0.00;;;33.10;91.00;;;;;;5044665;28;20037;-84
2022/08/13 10:48:01;;;;;;;0.70;0.10;;;33.40;90.10;;;;;;5055708;28;20017;-85
2022/08/13 10:50:29;;;;;;;1.05;0.10;;;33.30;91.00;;;;;;5043068;28;20025;-85
2022/08/13 10:52:59;;;;;;;0.45;0.10;;;33.30;91.00;;;;;;5036718;28;20106;-86
2022/08/13 10:55:25;;;;;;;1.13;0.10;;;33.40;90.40;;;;;;5047027;28;20060;-85
2022/08/13 10:57:51;;;;;;;0.20;0.08;;;33.10;90.30;;;;;;5055694;28;20036;-85
2022/08/13 11:00:18;;;;;;;0.32;0.10;;;33.10;90.70;;;;;;5030655;28;20037;-84
2022/08/13 11:02:45;;;;;;;0.35;0.00;;;33.20;90.60;;;;;;5031618;28;20201;-85
2022/08/13 11:05:11;;;;;;;0.10;0.10;;;33.50;90.10;;;;;;5040237;28;20154;-85
2022/08/13 11:07:39;;;;;;;0.20;0.10;;;33.50;90.50;;;;;;5040898;28;20028;-85
2022/08/13 11:10:07;;;;;;;0.00;0.00;;;33.70;90.00;;;;;;5039000;28;20146;-84
2022/08/13 11:12:34;;;;;;;0.50;0.10;;;33.80;90.80;;;;;;5021227;28;20090;-85
2022/08/13 11:15:01;;;;;;;0.60;0.10;;;33.90;90.80;;;;;;5052260;28;20036;-84
2022/08/13 11:17:27;;;;;;;0.20;0.10;;;33.70;90.80;;;;;;5023031;28;20040;-84
2022/08/13 11:19:53;;;;;;;0.32;0.10;;;33.80;90.30;;;;;;5056214;28;20028;-85
2022/08/13 11:22:23;;;;;;;0.40;0.10;;;34.00;90.10;;;;;;5024154;28;20167;-84
2022/08/13 11:24:49;;;;;;;0.82;0.10;;;33.30;89.60;;;;;;5044501;28;20423;-84
2022/08/13 11:27:16;;;;;;;0.10;0.03;;;33.00;89.30;;;;;;5046294;28;20281;-85
2022/08/13 11:29:42;;;;;;;0.22;0.10;;;32.90;89.40;;;;;;5027174;28;20082;-84
2022/08/13 11:32:08;;;;;;;0.40;0.00;;;32.80;89.80;;;;;;5055528;28;20036;-84
2022/08/13 11:34:33;;;;;;;0.40;0.10;;;32.80;89.70;;;;;;5037497;28;20104;-84
2022/08/13 11:37:00;;;;;;;0.30;0.10;;;33.00;89.70;;;;;;5042475;28;20171;-84
2022/08/13 11:39:25;;;;;;;0.10;0.10;;;33.00;90.50;;;;;;5056454;28;20039;-84
2022/08/13 11:41:51;;;;;;;0.40;0.10;;;33.50;89.50;;;;;;5038324;28;20400;-84
2022/08/13 11:44:17;;;;;;;0.50;0.10;;;33.50;88.50;;;;;;5023854;28;20039;-83
2022/08/13 11:46:43;;;;;;;1.10;0.10;;;33.20;88.60;;;;;;5037449;28;20029;-84
2022/08/13 11:49:10;;;;;;;0.28;0.10;;;33.30;89.20;;;;;;5056872;28;20385;-83
2022/08/13 11:51:39;;;;;;;0.10;0.00;;;33.40;89.30;;;;;;5029073;28;20045;-84
2022/08/13 11:54:05;;;;;;;;;;;33.70;89.20;;;;;;5023141;28;20036;-84
2022/08/13 11:56:31;;;;;;;0.13;0.00;;;33.50;89.20;;;;;;5024402;28;19908;-85
2022/08/13 11:58:56;;;;;;;0.10;0.00;;;33.80;88.80;;;;;;5024286;28;20113;-85
2022/08/13 12:01:23;;;;;;;0.17;0.10;;;33.80;89.40;;;;;;5052560;28;20393;-84
2022/08/13 12:03:48;;;;;;;0.00;0.00;;;33.70;89.70;;;;;;5022161;28;20389;-84
2022/08/13 12:06:14;;;;;;;0.40;0.10;;;33.30;87.90;;;;;;5054552;28;20033;-85
2022/08/13 12:08:41;;;;;;;1.05;0.10;;;33.20;88.60;;;;;;5054879;28;20030;-87
2022/08/13 12:11:07;;;;;;;0.28;0.10;;;33.20;88.50;;;;;;5030592;28;20161;-85
2022/08/13 12:13:33;;;;;;;0.10;0.00;;;33.00;87.90;;;;;;5043366;28;20040;-86
2022/08/13 12:15:58;;;;;;;0.22;0.10;;;33.40;87.50;;;;;;5042957;28;20038;-86
2022/08/13 12:18:24;;;;;;;0.25;0.10;;;32.90;87.30;;;;;;5046828;28;20028;-84
2022/08/13 12:20:50;;;;;;;0.35;0.10;;;33.00;87.70;;;;;;5055246;28;20051;-86
2022/08/13 12:23:16;;;;;;;0.90;0.10;;;33.00;87.70;;;;;;5038924;28;20095;-86
2022/08/13 12:25:44;;;;;;;0.15;0.10;;;33.70;88.70;;;;;;5044238;28;20029;-86
2022/08/13 12:28:16;;;;;;;1.35;0.10;;;33.30;88.00;;;;;;5044870;28;20036;-86
2022/08/13 12:30:48;;;;;;;0.13;0.00;;;33.00;86.00;;;;;;5023545;28;20515;-85
2022/08/13 12:33:14;;;;;;;0.40;0.10;;;33.20;87.20;;;;;;5026445;28;20056;-86
2022/08/13 12:35:40;;;;;;;0.30;0.10;;;33.50;87.70;;;;;;5019452;28;20039;-86
2022/08/13 12:38:08;;;;;;;0.20;0.10;;;33.70;86.40;;;;;;5045093;28;20025;-86
2022/08/13 12:40:34;;;;;;;0.20;0.10;;;33.50;87.80;;;;;;5028030;28;20067;-87
2022/08/13 12:42:59;;;;;;;0.45;0.10;;;33.80;87.40;;;;;;5035861;28;20044;-87
2022/08/13 12:45:25;;;;;;;0.40;0.10;;;33.40;86.20;;;;;;5045345;28;20029;-86
2022/08/13 12:47:50;;;;;;;1.48;0.10;;;33.00;87.00;;;;;;5030243;28;20048;-84
2022/08/13 12:50:17;;;;;;;0.25;0.10;;;33.00;86.20;;;;;;5024032;28;20279;-86
2022/08/13 12:52:43;;;;;;;0.20;0.10;;;33.20;86.70;;;;;;5028827;28;20452;-86
2022/08/13 12:55:09;;;;;;;0.30;0.10;;;33.00;87.60;;;;;;5028737;28;20116;-86
2022/08/13 12:57:36;;;;;;;0.20;0.10;;;33.30;86.80;;;;;;5028094;28;20274;-86
2022/08/13 13:00:05;;;;;;;0.20;0.10;;;33.40;86.20;;;;;;5037313;28;20078;-87
2022/08/13 13:02:31;;;;;;;0.45;0.10;;;33.20;86.60;;;;;;5043480;28;20107;-87
2022/08/13 13:04:58;;;;;;;0.30;0.10;;;33.00;86.50;;;;;;5054425;28;20029;-86
2022/08/13 13:07:24;;;;;;;1.45;0.10;;;33.10;87.20;;;;;;5017512;28;20047;-87
2022/08/13 13:09:50;;;;;;;0.10;0.00;;;33.30;85.60;;;;;;5038930;28;20025;-87
2022/08/13 13:12:16;;;;;;;1.00;0.10;;;33.60;86.40;;;;;;5037622;28;20033;-87